Time;durP1;ratioP1;P1;durP2;ratioP2;P2;SDS_P1;SDS_P2;PMS_P1;PMS_P2;Temp;Humidity;BMP_temperature;BMP_pressure;BME280_temperature;BME280_humidity;BME280_pressure;Samples;Min_cycle;Max_cycle;Signal;HPM_P1;HPM_P2
2022/05/13 00:01:28;;;;;;;;;;;23.00;57.50;;;;;;5094967;28;19973;-49
2022/05/13 00:03:55;;;;;;;;;;;23.00;57.50;;;;;;5081933;28;19932;-48
2022/05/13 00:06:22;;;;;;;;;;;23.00;57.40;;;;;;5076343;28;19932;-49
2022/05/13 00:08:49;;;;;;;;;;;23.00;57.40;;;;;;5076319;28;20347;-49
2022/05/13 00:11:17;;;;;;;;;;;23.00;57.40;;;;;;5076197;28;19924;-47
2022/05/13 00:13:44;;;;;;;;;;;22.90;57.40;;;;;;5076443;28;20366;-47
2022/05/13 00:16:11;;;;;;;;;;;22.90;57.30;;;;;;5076151;28;19924;-47
2022/05/13 00:18:38;;;;;;;;;;;23.00;57.40;;;;;;5075844;28;19931;-47
2022/05/13 00:21:05;;;;;;;;;;;23.00;57.40;;;;;;5075895;28;19929;-47
2022/05/13 00:23:32;;;;;;;;;;;23.00;57.40;;;;;;5075508;28;19924;-47
2022/05/13 00:25:59;;;;;;;;;;;23.00;57.30;;;;;;5075918;28;19932;-51
2022/05/13 00:28:26;;;;;;;;;;;23.00;57.30;;;;;;5083108;28;19924;-46
2022/05/13 00:30:53;;;;;;;;;;;23.00;57.30;;;;;;5085343;28;19994;-49
2022/05/13 00:33:21;;;;;;;;;;;23.00;57.30;;;;;;5075654;28;19925;-48
2022/05/13 00:35:48;;;;;;;;;;;23.00;57.30;;;;;;5075852;28;19929;-52
2022/05/13 00:38:15;;;;;;;;;;;23.00;57.30;;;;;;5075998;28;19952;-51
2022/05/13 00:40:43;;;;;;;;;;;23.00;57.30;;;;;;5075688;28;19925;-46
2022/05/13 00:43:11;;;;;;;;;;;23.00;57.20;;;;;;5095232;28;20456;-53
2022/05/13 00:45:38;;;;;;;;;;;23.00;57.30;;;;;;5096047;28;20318;-51
2022/05/13 00:48:06;;;;;;;;;;;22.90;57.20;;;;;;5095686;28;20342;-48
2022/05/13 00:50:35;;;;;;;;;;;23.00;57.20;;;;;;5089686;28;19924;-46
2022/05/13 00:53:02;;;;;;;;;;;22.90;57.20;;;;;;5075639;28;19925;-50
2022/05/13 00:55:48;;;;;;;;;;;23.00;57.20;;;;;;5075484;28;19924;-48
2022/05/13 00:58:17;;;;;;;;;;;23.00;57.20;;;;;;5075397;28;19924;-51
2022/05/13 01:00:44;;;;;;;;;;;23.00;57.20;;;;;;5075219;28;19924;-48
2022/05/13 01:03:11;;;;;;;;;;;22.90;57.10;;;;;;5075371;28;19924;-48
2022/05/13 01:05:43;;;;;;;;;;;23.00;57.20;;;;;;5075192;28;19963;-47
2022/05/13 01:08:11;;;;;;;;;;;22.90;57.10;;;;;;5075683;28;19936;-47
2022/05/13 01:10:40;;;;;;;;;;;23.00;57.20;;;;;;5054921;28;19971;-50
2022/05/13 01:13:10;;;;;;;;;;;23.00;57.20;;;;;;5054878;28;19929;-48
2022/05/13 01:15:39;;;;;;;;;;;23.00;57.20;;;;;;5055074;28;19979;-47
2022/05/13 01:18:06;;;;;;;;;;;23.00;57.10;;;;;;5069160;28;20011;-46
2022/05/13 01:20:47;;;;;;;;;;;23.00;57.10;;;;;;5075151;28;20031;-49
2022/05/13 01:23:20;;;;;;;;;;;23.00;57.10;;;;;;5074822;28;19929;-49
2022/05/13 01:25:50;;;;;;;;;;;23.00;57.10;;;;;;5093698;28;19928;-49
2022/05/13 01:28:18;;;;;;;;;;;23.00;57.10;;;;;;5095123;28;20371;-48
2022/05/13 01:30:47;;;;;;;;;;;23.00;57.10;;;;;;5085344;28;19947;-47
2022/05/13 01:33:14;;;;;;;;;;;23.00;57.10;;;;;;5074614;28;20384;-49
2022/05/13 01:35:42;;;;;;;;;;;23.00;57.10;;;;;;5075019;28;20333;-50
2022/05/13 01:38:10;;;;;;;;;;;23.00;57.10;;;;;;5073615;28;19948;-46
2022/05/13 01:40:37;;;;;;;;;;;23.00;57.10;;;;;;5074577;28;19978;-48
2022/05/13 01:43:05;;;;;;;;;;;23.00;57.00;;;;;;5093217;28;19938;-47
2022/05/13 01:45:32;;;;;;;;;;;23.00;57.00;;;;;;5094429;28;19935;-47
2022/05/13 01:47:59;;;;;;;;;;;22.90;57.00;;;;;;5078963;28;20434;-48
2022/05/13 01:50:26;;;;;;;;;;;22.90;57.00;;;;;;5074292;28;19924;-47
2022/05/13 01:52:54;;;;;;;;;;;23.00;57.00;;;;;;5074325;28;19975;-47
2022/05/13 01:55:22;;;;;;;;;;;23.00;57.00;;;;;;5076176;28;20338;-48
2022/05/13 01:57:50;;;;;;;;;;;23.00;57.00;;;;;;5073753;28;20384;-47
2022/05/13 02:00:17;;;;;;;;;;;23.00;57.00;;;;;;5073941;28;19925;-46
2022/05/13 02:05:30;;;;;;;;;;;23.00;57.00;;;;;;5074232;28;19924;-46
2022/05/13 02:07:57;;;;;;;;;;;22.90;56.90;;;;;;5073979;28;19970;-47
2022/05/13 02:10:24;;;;;;;;;;;23.00;57.00;;;;;;5073756;28;20373;-51
2022/05/13 02:12:51;;;;;;;;;;;22.90;56.90;;;;;;5073685;28;20418;-48
2022/05/13 02:15:18;;;;;;;;;;;22.90;56.80;;;;;;5073671;28;20315;-51
2022/05/13 02:17:45;;;;;;;;;;;23.00;57.00;;;;;;5074156;28;19979;-48
2022/05/13 02:20:12;;;;;;;;;;;23.00;57.00;;;;;;5076954;28;19928;-46
2022/05/13 02:22:40;;;;;;;;;;;23.00;57.00;;;;;;5093495;28;19925;-47
2022/05/13 02:25:07;;;;;;;;;;;23.00;56.90;;;;;;5093668;28;19924;-46
2022/05/13 02:27:34;;;;;;;;;;;23.00;56.90;;;;;;5093490;28;19931;-48
2022/05/13 02:30:02;;;;;;;;;;;22.90;56.80;;;;;;5090564;28;19928;-49
2022/05/13 02:32:28;;;;;;;;;;;23.00;56.90;;;;;;5072212;28;19925;-48
2022/05/13 02:34:55;;;;;;;;;;;23.00;56.90;;;;;;5073378;28;19928;-46
2022/05/13 02:37:23;;;;;;;;;;;23.00;56.90;;;;;;5073482;28;20011;-49
2022/05/13 02:39:50;;;;;;;;;;;23.00;56.90;;;;;;5072914;28;19939;-50
2022/05/13 02:42:17;;;;;;;;;;;23.00;56.90;;;;;;5085457;28;20406;-49
2022/05/13 02:44:44;;;;;;;;;;;23.00;56.90;;;;;;5073608;28;19925;-48
2022/05/13 02:47:11;;;;;;;;;;;23.00;56.80;;;;;;5073256;28;19924;-49
2022/05/13 02:49:38;;;;;;;;;;;22.90;56.80;;;;;;5073568;28;19928;-53
2022/05/13 02:52:05;;;;;;;;;;;22.90;56.80;;;;;;5073572;28;19924;-48
2022/05/13 02:54:33;;;;;;;;;;;23.00;56.80;;;;;;5072912;28;19931;-50
2022/05/13 02:57:00;;;;;;;;;;;23.00;56.80;;;;;;5073568;28;20299;-51
2022/05/13 02:59:27;;;;;;;;;;;23.00;56.80;;;;;;5071824;28;19929;-48
2022/05/13 03:01:54;;;;;;;;;;;22.90;56.70;;;;;;5072205;28;19924;-52
2022/05/13 03:04:22;;;;;;;;;;;23.00;56.80;;;;;;5073107;28;19932;-53
2022/05/13 03:06:50;;;;;;;;;;;22.90;56.70;;;;;;5073329;28;19928;-48
2022/05/13 03:09:17;;;;;;;;;;;23.00;56.80;;;;;;5072836;28;19928;-50
2022/05/13 03:11:44;;;;;;;;;;;22.90;56.70;;;;;;5072978;28;19924;-49
2022/05/13 03:14:11;;;;;;;;;;;23.00;56.80;;;;;;5073380;28;19928;-48
2022/05/13 03:16:38;;;;;;;;;;;23.00;56.80;;;;;;5075144;28;19931;-50
2022/05/13 03:19:05;;;;;;;;;;;23.00;56.80;;;;;;5092653;28;19931;-47
2022/05/13 03:21:32;;;;;;;;;;;23.00;56.80;;;;;;5093351;28;19986;-46
2022/05/13 03:23:59;;;;;;;;;;;23.00;56.80;;;;;;5092925;28;19924;-50
2022/05/13 03:26:26;;;;;;;;;;;23.00;56.80;;;;;;5093347;28;19924;-46
2022/05/13 03:28:53;;;;;;;;;;;22.90;56.70;;;;;;5092881;28;19931;-48
2022/05/13 03:31:20;;;;;;;;;;;22.90;56.70;;;;;;5078401;28;19928;-50
2022/05/13 03:33:47;;;;;;;;;;;22.90;56.70;;;;;;5072191;28;19928;-47
2022/05/13 03:36:14;;;;;;;;;;;23.00;56.70;;;;;;5074689;28;19932;-51
2022/05/13 03:38:41;;;;;;;;;;;22.90;56.60;;;;;;5076746;28;20042;-47
2022/05/13 03:41:09;;;;;;;;;;;22.90;56.60;;;;;;5079876;28;19924;-49
2022/05/13 03:43:36;;;;;;;;;;;23.00;56.70;;;;;;5097171;28;19928;-50
2022/05/13 03:46:03;;;;;;;;;;;23.00;56.70;;;;;;5097306;28;19978;-49
2022/05/13 03:48:30;;;;;;;;;;;23.00;56.70;;;;;;5085318;28;19925;-50
2022/05/13 03:50:57;;;;;;;;;;;23.00;56.70;;;;;;5076821;28;19932;-49
2022/05/13 03:53:24;;;;;;;;;;;23.00;56.70;;;;;;5076650;28;19924;-47
2022/05/13 03:55:51;;;;;;;;;;;23.00;56.70;;;;;;5087414;28;19924;-46
2022/05/13 03:58:18;;;;;;;;;;;23.00;56.70;;;;;;5097033;28;19989;-49
2022/05/13 04:00:46;;;;;;;;;;;23.00;56.60;;;;;;5097014;28;19974;-47
2022/05/13 04:03:13;;;;;;;;;;;22.90;56.60;;;;;;5095110;28;20299;-50
2022/05/13 04:11:11;;;;;;;;;;;23.00;56.60;;;;;;5076764;28;19993;-54
2022/05/13 04:16:25;;;;;;;;;;;23.00;56.60;;;;;;5065256;28;19924;-50
2022/05/13 04:18:53;;;;;;;;;;;22.90;56.50;;;;;;5095448;28;19928;-51
2022/05/13 04:21:21;;;;;;;;;;;23.00;56.60;;;;;;5096438;28;19924;-52
2022/05/13 04:23:49;;;;;;;;;;;23.00;56.60;;;;;;5096066;28;19928;-48
2022/05/13 04:26:17;;;;;;;;;;;23.00;56.60;;;;;;5092798;28;20311;-50
2022/05/13 04:28:46;;;;;;;;;;;23.00;56.60;;;;;;5075954;28;19924;-50
2022/05/13 04:31:15;;;;;;;;;;;23.00;56.60;;;;;;5075875;28;19928;-52
2022/05/13 04:33:43;;;;;;;;;;;22.90;56.50;;;;;;5075394;28;19924;-51
2022/05/13 04:36:10;;;;;;;;;;;23.00;56.60;;;;;;5075851;28;19964;-51
2022/05/13 04:38:37;;;;;;;;;;;23.00;56.60;;;;;;5076010;28;19984;-46
2022/05/13 04:43:52;;;;;;;;;;;23.00;56.60;;;;;;5096113;28;19962;-51
2022/05/13 04:46:18;;;;;;;;;;;23.00;56.60;;;;;;5110647;28;19924;-51
2022/05/13 04:48:48;;;;;;;;;;;22.90;56.50;;;;;;5082972;28;20023;-51
2022/05/13 04:51:19;;;;;;;;;;;23.00;56.50;;;;;;5075504;28;19924;-48
2022/05/13 04:53:47;;;;;;;;;;;23.00;56.50;;;;;;5075196;28;19924;-54
2022/05/13 04:56:15;;;;;;;;;;;22.90;56.50;;;;;;5089385;28;19924;-49
2022/05/13 04:58:42;;;;;;;;;;;23.00;56.50;;;;;;5095515;28;19928;-51
2022/05/13 05:01:10;;;;;;;;;;;23.00;56.50;;;;;;5095272;28;19978;-48
2022/05/13 05:03:38;;;;;;;;;;;23.00;56.50;;;;;;5076676;28;20038;-47
2022/05/13 05:06:04;;;;;;;;;;;23.00;56.50;;;;;;5075141;28;19924;-48
2022/05/13 05:08:31;;;;;;;;;;;22.90;56.40;;;;;;5074712;28;19924;-50
2022/05/13 05:10:59;;;;;;;;;;;23.00;56.50;;;;;;5093408;28;19924;-47
2022/05/13 05:13:29;;;;;;;;;;;23.00;56.50;;;;;;5095345;28;19928;-49
2022/05/13 05:15:57;;;;;;;;;;;23.00;56.50;;;;;;5095373;28;19950;-51
2022/05/13 05:18:24;;;;;;;;;;;23.00;56.50;;;;;;5095462;28;19924;-48
2022/05/13 05:20:51;;;;;;;;;;;22.90;56.40;;;;;;5094987;28;20393;-50
2022/05/13 05:23:20;;;;;;;;;;;23.00;56.50;;;;;;5083678;28;20273;-52
2022/05/13 05:25:47;;;;;;;;;;;23.00;56.50;;;;;;5075119;28;19948;-49
2022/05/13 05:28:15;;;;;;;;;;;23.00;56.50;;;;;;5074629;28;19931;-50
2022/05/13 05:30:43;;;;;;;;;;;23.00;56.50;;;;;;5074229;28;19924;-50
2022/05/13 05:33:11;;;;;;;;;;;23.00;56.50;;;;;;5075056;28;19924;-53
2022/05/13 05:35:38;;;;;;;;;;;23.00;56.50;;;;;;5074328;28;19929;-50
2022/05/13 05:38:07;;;;;;;;;;;22.90;56.40;;;;;;5074651;28;19925;-49
2022/05/13 05:40:35;;;;;;;;;;;22.90;56.40;;;;;;5074520;28;20323;-48
2022/05/13 05:43:06;;;;;;;;;;;22.90;56.40;;;;;;5074797;28;20338;-47
2022/05/13 05:45:36;;;;;;;;;;;23.00;56.40;;;;;;5074885;28;19924;-51
2022/05/13 05:48:10;;;;;;;;;;;22.90;56.30;;;;;;5074594;28;19964;-50
2022/05/13 05:50:37;;;;;;;;;;;23.00;56.50;;;;;;5073936;28;19935;-50
2022/05/13 05:53:04;;;;;;;;;;;23.00;56.40;;;;;;5074607;28;19949;-50
2022/05/13 05:58:17;;;;;;;;;;;23.00;56.40;;;;;;5088033;28;19928;-51
2022/05/13 06:00:46;;;;;;;;;;;23.00;56.40;;;;;;5073769;28;19924;-48
2022/05/13 06:03:14;;;;;;;;;;;23.00;56.30;;;;;;5073708;28;19947;-52
2022/05/13 06:05:42;;;;;;;;;;;23.00;56.30;;;;;;5081604;28;20297;-47
2022/05/13 06:08:09;;;;;;;;;;;23.00;56.30;;;;;;5094125;28;19924;-47
2022/05/13 06:10:36;;;;;;;;;;;23.00;56.30;;;;;;5093912;28;20412;-50
2022/05/13 06:13:04;;;;;;;;;;;23.00;56.20;;;;;;5094006;28;19982;-52
2022/05/13 06:15:31;;;;;;;;;;;23.00;56.20;;;;;;5094260;28;19977;-49
2022/05/13 06:17:58;;;;;;;;;;;23.00;56.20;;;;;;5094084;28;19924;-52
2022/05/13 06:20:27;;;;;;;;;;;23.10;56.30;;;;;;5092435;28;19927;-50
2022/05/13 06:22:54;;;;;;;;;;;23.10;56.30;;;;;;5086882;28;19925;-48
2022/05/13 06:25:22;;;;;;;;;;;23.10;56.30;;;;;;5073687;28;19931;-50
2022/05/13 06:27:50;;;;;;;;;;;23.10;56.30;;;;;;5070580;28;20304;-54
2022/05/13 06:30:19;;;;;;;;;;;23.00;56.10;;;;;;5053560;28;19928;-50
2022/05/13 06:32:46;;;;;;;;;;;23.10;56.30;;;;;;5053298;28;19925;-49
2022/05/13 06:35:13;;;;;;;;;;;23.10;56.20;;;;;;5053683;28;20067;-49
2022/05/13 06:37:40;;;;;;;;;;;23.10;56.20;;;;;;5053324;28;19925;-51
2022/05/13 06:40:08;;;;;;;;;;;23.10;56.20;;;;;;5053305;28;19936;-52
2022/05/13 06:42:35;;;;;;;;;;;23.10;56.10;;;;;;5082502;28;19924;-50
2022/05/13 06:45:03;;;;;;;;;;;23.20;56.10;;;;;;5086800;28;19925;-51
2022/05/13 06:47:30;;;;;;;;;;;23.20;56.00;;;;;;5073201;28;19931;-50
2022/05/13 06:49:59;;;;;;;;;;;23.20;56.00;;;;;;5073467;28;19933;-49
2022/05/13 06:52:26;;;;;;;;;;;23.20;55.90;;;;;;5073396;28;20340;-48
2022/05/13 06:55:07;;;;;;;;;;;23.20;55.80;;;;;;5072693;28;19928;-51
2022/05/13 06:57:37;;;;;;;;;;;23.30;55.90;;;;;;5073344;28;19924;-47
2022/05/13 07:00:05;;;;;;;;;;;23.30;55.80;;;;;;5073048;28;20015;-53
2022/05/13 07:02:32;;;;;;;;;;;23.30;55.80;;;;;;5081699;28;19924;-51
2022/05/13 07:04:58;;;;;;;;;;;23.30;55.80;;;;;;5073324;28;19998;-50
2022/05/13 07:07:28;;;;;;;;;;;23.30;55.70;;;;;;5072697;28;20402;-55
2022/05/13 07:09:55;;;;;;;;;;;23.40;55.70;;;;;;5073131;28;19928;-52
2022/05/13 07:12:22;;;;;;;;;;;23.40;55.60;;;;;;5073017;28;19925;-54
2022/05/13 07:14:49;;;;;;;;;;;23.50;55.50;;;;;;5072221;28;19955;-53
2022/05/13 07:17:16;;;;;;;;;;;23.50;56.00;;;;;;5072712;28;19924;-50
2022/05/13 07:19:43;;;;;;;;;;;23.50;55.30;;;;;;5072680;28;19924;-53
2022/05/13 07:22:10;;;;;;;;;;;23.60;55.30;;;;;;5072454;28;19977;-53
2022/05/13 07:24:37;;;;;;;;;;;23.60;55.20;;;;;;5072975;28;19925;-53
2022/05/13 07:27:04;;;;;;;;;;;23.60;55.20;;;;;;5072883;28;20041;-51
2022/05/13 07:29:31;;;;;;;;;;;23.60;55.10;;;;;;5072846;28;20570;-51
2022/05/13 07:31:58;;;;;;;;;;;23.70;55.10;;;;;;5072874;28;19929;-51
2022/05/13 07:34:25;;;;;;;;;;;23.70;55.00;;;;;;5072916;28;19929;-48
2022/05/13 07:36:53;;;;;;;;;;;23.70;55.00;;;;;;5072813;28;19990;-49
2022/05/13 07:42:08;;;;;;;;;;;23.70;55.00;;;;;;5083731;28;19931;-49
2022/05/13 07:44:35;;;;;;;;;;;23.70;54.90;;;;;;5089862;28;19925;-55
2022/05/13 07:47:06;;;;;;;;;;;23.70;54.90;;;;;;5072329;28;19925;-52
2022/05/13 07:49:34;;;;;;;;;;;23.70;54.90;;;;;;5072392;28;19924;-53
2022/05/13 07:52:01;;;;;;;;;;;23.70;54.90;;;;;;5072388;28;20370;-54
2022/05/13 07:54:28;;;;;;;;;;;23.70;54.80;;;;;;5072313;28;19935;-50
2022/05/13 07:56:55;;;;;;;;;;;23.80;54.80;;;;;;5072416;28;20020;-53
2022/05/13 07:59:22;;;;;;;;;;;23.80;54.80;;;;;;5089937;28;19924;-51
2022/05/13 08:01:49;;;;;;;;;;;23.80;54.70;;;;;;5092592;28;19931;-51
2022/05/13 08:04:16;;;;;;;;;;;23.80;54.70;;;;;;5092997;28;19924;-53
2022/05/13 08:06:44;;;;;;;;;;;23.80;54.70;;;;;;5092896;28;19924;-47
2022/05/13 08:09:12;;;;;;;;;;;23.80;54.70;;;;;;5083985;28;19931;-53
2022/05/13 08:11:39;;;;;;;;;;;23.80;54.70;;;;;;5071980;28;19924;-47
2022/05/13 08:14:06;;;;;;;;;;;23.80;54.70;;;;;;5072509;28;20364;-47
2022/05/13 08:16:35;;;;;;;;;;;23.80;54.70;;;;;;5072267;28;19925;-53
2022/05/13 08:19:03;;;;;;;;;;;23.80;54.70;;;;;;5088381;28;19925;-49
2022/05/13 08:21:31;;;;;;;;;;;23.80;54.70;;;;;;5073235;28;19932;-48
2022/05/13 08:23:59;;;;;;;;;;;23.80;55.40;;;;;;5075432;28;20303;-51
2022/05/13 08:26:27;;;;;;;;;;;23.80;54.70;;;;;;5076043;28;19925;-50
2022/05/13 08:28:54;;;;;;;;;;;23.90;54.80;;;;;;5076039;28;19931;-51
2022/05/13 08:31:21;;;;;;;;;;;23.80;54.70;;;;;;5076066;28;20312;-49
2022/05/13 08:33:48;;;;;;;;;;;23.90;55.40;;;;;;5076179;28;19950;-47
2022/05/13 08:36:15;;;;;;;;;;;23.90;54.70;;;;;;5075711;28;19932;-47
2022/05/13 08:38:44;;;;;;;;;;;23.90;54.70;;;;;;5075533;28;19974;-49
2022/05/13 08:41:11;;;;;;;;;;;23.90;54.60;;;;;;5079069;28;20014;-47
2022/05/13 08:43:39;;;;;;;;;;;23.90;54.60;;;;;;5096243;28;19928;-52
2022/05/13 08:46:12;;;;;;;;;;;23.90;54.50;;;;;;5079609;28;19925;-47
2022/05/13 08:48:46;;;;;;;;;;;23.90;54.50;;;;;;5075645;28;19977;-50
2022/05/13 08:51:13;;;;;;;;;;;24.00;54.50;;;;;;5075317;28;19978;-48
2022/05/13 08:54:00;;;;;;;;;;;24.00;54.50;;;;;;5076526;28;19924;-47
2022/05/13 08:56:29;;;;;;;;;;;24.00;54.50;;;;;;5087094;28;19924;-49
2022/05/13 08:59:07;;;;;;;;;;;24.00;54.40;;;;;;5095435;28;19924;-48
2022/05/13 09:01:38;;;;;;;;;;;24.10;54.50;;;;;;5095824;28;20411;-52
2022/05/13 09:04:31;;;;;;;;;;;24.10;54.50;;;;;;5080930;28;20380;-49
2022/05/13 09:07:00;;;;;;;;;;;24.10;54.40;;;;;;5074186;28;20339;-50
2022/05/13 09:09:28;;;;;;;;;;;24.10;54.40;;;;;;5075041;28;20296;-52
2022/05/13 09:11:55;;;;;;;;;;;24.10;54.40;;;;;;5075198;28;19924;-49
2022/05/13 09:14:40;;;;;;;;;;;24.10;54.30;;;;;;5075269;28;20281;-48
2022/05/13 09:17:25;;;;;;;;;;;24.10;54.30;;;;;;5074702;28;19932;-49
2022/05/13 09:20:06;;;;;;;;;;;24.10;54.30;;;;;;5074873;28;20292;-48
2022/05/13 09:22:39;;;;;;;;;;;24.10;54.20;;;;;;5074779;28;19924;-53
2022/05/13 09:25:06;;;;;;;;;;;24.10;54.20;;;;;;5075003;28;19924;-52
2022/05/13 09:28:11;;;;;;;;;;;24.10;54.20;;;;;;5074879;28;20338;-50
2022/05/13 09:30:40;;;;;;;;;;;24.20;54.30;;;;;;5073611;28;19934;-51
2022/05/13 09:33:24;;;;;;;;;;;24.20;54.30;;;;;;5074497;28;19924;-49
2022/05/13 09:35:53;;;;;;;;;;;24.20;54.20;;;;;;5074565;28;19924;-51
2022/05/13 09:38:23;;;;;;;;;;;24.20;54.20;;;;;;5074620;28;19931;-51
2022/05/13 09:41:11;;;;;;;;;;;24.20;54.20;;;;;;5074540;28;19939;-53
2022/05/13 09:43:40;;;;;;;;;;;24.20;54.20;;;;;;5086241;28;19924;-50
2022/05/13 09:46:09;;;;;;;;;;;24.20;54.20;;;;;;5074225;28;19925;-48
2022/05/13 09:48:38;;;;;;;;;;;24.20;54.20;;;;;;5062852;28;20423;-49
2022/05/13 09:51:23;;;;;;;;;;;24.20;54.20;;;;;;5075437;28;19931;-50
2022/05/13 09:54:01;;;;;;;;;;;24.20;54.20;;;;;;5095006;28;20284;-47
2022/05/13 09:56:39;;;;;;;;;;;24.20;54.20;;;;;;5094314;28;19972;-47
2022/05/13 09:59:12;;;;;;;;;;;24.30;54.30;;;;;;5094127;28;20420;-47
2022/05/13 10:01:39;;;;;;;;;;;24.30;54.30;;;;;;5094320;28;19935;-51
2022/05/13 10:04:16;;;;;;;;;;;24.20;54.20;;;;;;5094358;28;19976;-48
2022/05/13 10:06:43;;;;;;;;;;;24.30;54.30;;;;;;5094232;28;19924;-46
2022/05/13 10:15:13;;;;;;;;;;;24.30;54.20;;;;;;5073983;28;20406;-47
2022/05/13 10:17:45;;;;;;;;;;;24.20;54.20;;;;;;5073671;28;20019;-49
2022/05/13 10:20:18;;;;;;;;;;;24.30;54.30;;;;;;5073579;28;20384;-49
2022/05/13 10:22:56;;;;;;;;;;;24.30;54.30;;;;;;5071898;28;20423;-46
2022/05/13 10:25:26;;;;;;;;;;;24.20;54.20;;;;;;5073860;28;19931;-49
2022/05/13 10:28:07;;;;;;;;;;;24.30;54.20;;;;;;5073430;28;19925;-46
2022/05/13 10:30:47;;;;;;;;;;;24.30;54.20;;;;;;5073679;28;19924;-49
2022/05/13 10:33:19;;;;;;;;;;;24.30;54.20;;;;;;5073245;28;20213;-52
2022/05/13 10:35:53;;;;;;;;;;;24.30;54.20;;;;;;5073659;28;19978;-51
2022/05/13 10:38:29;;;;;;;;;;;24.30;54.20;;;;;;5073404;28;19940;-52
2022/05/13 10:41:03;;;;;;;;;;;24.30;54.20;;;;;;5074433;28;20320;-48
2022/05/13 10:43:35;;;;;;;;;;;24.40;54.20;;;;;;5093455;28;19924;-51
2022/05/13 10:46:19;;;;;;;;;;;24.40;54.20;;;;;;5093108;28;19924;-50
2022/05/13 10:48:48;;;;;;;;;;;24.40;54.20;;;;;;5066141;28;19978;-47
2022/05/13 10:51:15;;;;;;;;;;;24.40;54.20;;;;;;5072367;28;19931;-53
2022/05/13 10:54:08;;;;;;;;;;;24.40;54.20;;;;;;5073352;28;19924;-51
2022/05/13 10:56:35;;;;;;;;;;;24.30;54.20;;;;;;5073109;28;19925;-49
2022/05/13 10:59:02;;;;;;;;;;;24.30;54.30;;;;;;5073248;28;19924;-48
2022/05/13 11:01:40;;;;;;;;;;;24.30;54.30;;;;;;5072990;28;20388;-51
2022/05/13 11:04:10;;;;;;;;;;;24.30;54.20;;;;;;5073527;28;20372;-48
2022/05/13 11:06:46;;;;;;;;;;;24.40;54.20;;;;;;5073497;28;19972;-50
2022/05/13 11:09:16;;;;;;;;;;;24.40;54.30;;;;;;5073126;28;19950;-52
2022/05/13 11:11:44;;;;;;;;;;;24.40;54.20;;;;;;5073038;28;19931;-48
2022/05/13 11:14:32;;;;;;;;;;;24.40;54.20;;;;;;5073021;28;20425;-47
2022/05/13 11:17:12;;;;;;;;;;;24.30;54.20;;;;;;5073045;28;19928;-50
2022/05/13 11:19:46;;;;;;;;;;;24.30;54.30;;;;;;5072723;28;19924;-47
2022/05/13 11:22:32;;;;;;;;;;;24.30;54.40;;;;;;5072865;28;19928;-50
2022/05/13 11:28:13;;;;;;;;;;;24.20;54.50;;;;;;5072707;28;19924;-47
2022/05/13 11:30:42;;;;;;;;;;;24.20;54.50;;;;;;5072723;28;19934;-47
2022/05/13 11:33:13;;;;;;;;;;;24.20;54.50;;;;;;5073057;28;19925;-48
2022/05/13 11:35:41;;;;;;;;;;;24.20;54.50;;;;;;5072592;28;19970;-47
2022/05/13 11:38:14;;;;;;;;;;;24.20;54.40;;;;;;5072883;28;19932;-50
2022/05/13 11:40:47;;;;;;;;;;;24.30;54.50;;;;;;5072524;28;19924;-47
2022/05/13 11:43:55;;;;;;;;;;;24.30;54.40;;;;;;5073895;28;19924;-47
2022/05/13 11:46:39;;;;;;;;;;;24.30;54.40;;;;;;5092828;28;20272;-48
2022/05/13 11:49:25;;;;;;;;;;;24.30;54.40;;;;;;5077133;28;20323;-50
2022/05/13 11:51:53;;;;;;;;;;;24.40;54.40;;;;;;5072325;28;19931;-49
2022/05/13 11:54:28;;;;;;;;;;;24.40;54.30;;;;;;5072494;28;19924;-48
2022/05/13 11:57:28;;;;;;;;;;;24.40;54.30;;;;;;5094072;28;20406;-47
2022/05/13 12:00:15;;;;;;;;;;;24.40;54.20;;;;;;5054475;28;20343;-49
2022/05/13 12:02:45;;;;;;;;;;;24.40;54.20;;;;;;5053834;28;19931;-48
2022/05/13 12:05:25;;;;;;;;;;;24.40;54.20;;;;;;5053957;28;19932;-49
2022/05/13 12:08:00;;;;;;;;;;;24.40;54.10;;;;;;5054197;28;20008;-49
2022/05/13 12:10:35;;;;;;;;;;;24.40;54.20;;;;;;5035867;28;19933;-47
2022/05/13 12:13:18;;;;;;;;;;;24.40;54.20;;;;;;5033992;28;19925;-47
2022/05/13 12:15:57;;;;;;;;;;;24.30;54.20;;;;;;5033854;28;20381;-46
2022/05/13 12:18:24;;;;;;;;;;;24.30;54.30;;;;;;5033730;28;19979;-48
2022/05/13 12:21:10;;;;;;;;;;;24.30;55.00;;;;;;5033682;28;19932;-48
2022/05/13 12:23:49;;;;;;;;;;;24.20;54.40;;;;;;5021823;28;19925;-46
2022/05/13 12:26:20;;;;;;;;;;;24.20;54.60;;;;;;5014415;28;19929;-49
2022/05/13 12:28:47;;;;;;;;;;;24.10;54.60;;;;;;5014154;28;20452;-49
2022/05/13 12:31:29;;;;;;;;;;;24.10;54.70;;;;;;5013842;28;20286;-49
2022/05/13 12:39:50;;;;;;;;;;;24.10;54.80;;;;;;5023839;28;19957;-49
2022/05/13 12:42:46;;;;;;;;;;;24.00;54.80;;;;;;5049158;28;19925;-47
2022/05/13 12:45:22;;;;;;;;;;;24.00;54.80;;;;;;5055958;28;19954;-46
2022/05/13 12:47:55;;;;;;;;;;;24.00;54.90;;;;;;5049383;28;19933;-50
2022/05/13 12:50:41;;;;;;;;;;;24.00;54.90;;;;;;5034467;28;19972;-48
2022/05/13 12:53:37;;;;;;;;;;;24.00;54.90;;;;;;5035431;28;19964;-47
2022/05/13 12:56:10;;;;;;;;;;;24.00;54.90;;;;;;5030883;28;19956;-49
2022/05/13 12:58:39;;;;;;;;;;;24.00;55.00;;;;;;5035303;28;20369;-46
2022/05/13 13:01:09;;;;;;;;;;;24.00;55.00;;;;;;5035360;28;19926;-50
2022/05/13 13:03:37;;;;;;;;;;;24.00;55.00;;;;;;5015751;28;19926;-50
2022/05/13 13:06:09;;;;;;;;;;;24.00;55.00;;;;;;5015599;28;19933;-49
2022/05/13 13:08:37;;;;;;;;;;;24.00;55.00;;;;;;5018212;28;19925;-53
2022/05/13 13:11:15;;;;;;;;;;;24.00;55.00;;;;;;5036899;28;19925;-48
2022/05/13 13:13:47;;;;;;;;;;;24.00;55.00;;;;;;5055273;28;19925;-49
2022/05/13 13:16:26;;;;;;;;;;;24.00;55.00;;;;;;5054578;28;20035;-50
2022/05/13 13:19:07;;;;;;;;;;;24.00;55.00;;;;;;5055129;28;19967;-51
2022/05/13 13:21:34;;;;;;;;;;;24.00;55.10;;;;;;5054500;28;19929;-50
2022/05/13 13:24:01;;;;;;;;;;;24.00;55.10;;;;;;5070168;28;20411;-51
2022/05/13 13:26:29;;;;;;;;;;;24.00;55.20;;;;;;5074838;28;19924;-50
2022/05/13 13:28:56;;;;;;;;;;;24.00;55.20;;;;;;5074686;28;19924;-48
2022/05/13 13:31:24;;;;;;;;;;;23.90;55.20;;;;;;5075063;28;19924;-53
2022/05/13 13:33:53;;;;;;;;;;;23.90;55.20;;;;;;5075200;28;19963;-48
2022/05/13 13:36:23;;;;;;;;;;;23.90;55.20;;;;;;5084601;28;19928;-52
2022/05/13 13:38:51;;;;;;;;;;;23.90;55.20;;;;;;5095217;28;19935;-53
2022/05/13 13:41:37;;;;;;;;;;;23.90;55.30;;;;;;5094994;28;19947;-54
2022/05/13 13:44:06;;;;;;;;;;;23.90;55.30;;;;;;5095207;28;20299;-50
2022/05/13 13:46:44;;;;;;;;;;;23.90;55.30;;;;;;5094844;28;19977;-55
2022/05/13 13:49:24;;;;;;;;;;;23.90;55.30;;;;;;5078480;28;20284;-52
2022/05/13 13:51:53;;;;;;;;;;;23.90;55.30;;;;;;5074585;28;19929;-49
2022/05/13 13:54:34;;;;;;;;;;;23.80;55.30;;;;;;5074419;28;20130;-49
2022/05/13 13:57:21;;;;;;;;;;;23.90;55.40;;;;;;5074116;28;19931;-51
2022/05/13 13:59:54;;;;;;;;;;;23.80;55.40;;;;;;5050330;28;19925;-47
2022/05/13 14:02:32;;;;;;;;;;;23.80;55.40;;;;;;5054395;28;19928;-50
2022/05/13 14:04:59;;;;;;;;;;;23.80;55.40;;;;;;5054370;28;19979;-48
2022/05/13 14:07:27;;;;;;;;;;;23.80;55.40;;;;;;5057178;28;19925;-48
2022/05/13 14:09:54;;;;;;;;;;;23.80;55.40;;;;;;5074010;28;19924;-46
2022/05/13 14:12:22;;;;;;;;;;;23.80;55.40;;;;;;5074388;28;20276;-47
2022/05/13 14:15:09;;;;;;;;;;;23.80;55.40;;;;;;5074060;28;19924;-49
2022/05/13 14:17:37;;;;;;;;;;;23.80;55.40;;;;;;5073870;28;20401;-52
2022/05/13 14:20:10;;;;;;;;;;;23.80;55.50;;;;;;5073087;28;19931;-55
2022/05/13 14:22:55;;;;;;;;;;;23.80;55.50;;;;;;5073057;28;19974;-53
2022/05/13 14:25:31;;;;;;;;;;;23.80;55.40;;;;;;5073482;28;19925;-53
2022/05/13 14:27:58;;;;;;;;;;;23.80;55.40;;;;;;5073552;28;19924;-54
2022/05/13 14:30:30;;;;;;;;;;;23.90;55.50;;;;;;5074160;28;20261;-49
2022/05/13 14:32:57;;;;;;;;;;;23.90;55.40;;;;;;5089930;28;19924;-52
2022/05/13 14:35:32;;;;;;;;;;;23.90;55.60;;;;;;5093655;28;19924;-52
2022/05/13 14:38:04;;;;;;;;;;;23.90;55.30;;;;;;5093848;28;19935;-46
2022/05/13 14:40:38;;;;;;;;;;;23.90;55.30;;;;;;5093960;28;19947;-50
2022/05/13 14:43:10;;;;;;;;;;;23.90;55.20;;;;;;5093263;28;19924;-48
2022/05/13 14:45:41;;;;;;;;;;;24.00;55.20;;;;;;5093945;28;19978;-48
2022/05/13 14:48:11;;;;;;;;;;;24.00;55.20;;;;;;5085841;28;19932;-47
2022/05/13 14:50:39;;;;;;;;;;;24.00;55.20;;;;;;5073078;28;19999;-50
2022/05/13 14:53:11;;;;;;;;;;;24.00;55.10;;;;;;5073448;28;19924;-49
2022/05/13 14:55:43;;;;;;;;;;;24.00;55.10;;;;;;5073425;28;19924;-47
2022/05/13 14:58:22;;;;;;;;;;;24.00;55.20;;;;;;5073578;28;19929;-47
2022/05/13 15:00:53;;;;;;;;;;;23.90;55.10;;;;;;5072975;28;19924;-47
2022/05/13 15:03:22;;;;;;;;;;;23.90;55.00;;;;;;5072884;28;19936;-48
2022/05/13 15:05:51;;;;;;;;;;;24.00;55.10;;;;;;5053360;28;20286;-47
2022/05/13 15:08:37;;;;;;;;;;;24.00;55.10;;;;;;5053611;28;19975;-50
2022/05/13 15:11:04;;;;;;;;;;;24.00;55.10;;;;;;5073175;28;19958;-47